createdAt,value
2023-05-08T00:00:41.093Z,93.65
2023-05-08T00:03:10.261Z,85.13
2023-05-08T00:05:37.967Z,91.03
2023-05-08T00:08:06.061Z,94.70
2023-05-08T00:10:33.939Z,93.72
2023-05-08T00:13:01.737Z,80.15
2023-05-08T00:15:29.388Z,95.43
2023-05-08T00:17:57.122Z,102.40
2023-05-08T00:20:27.948Z,93.55
2023-05-08T00:22:55.943Z,90.80
2023-05-08T00:25:23.571Z,97.78
2023-05-08T00:27:51.715Z,96.18
2023-05-08T00:30:19.945Z,118.20
2023-05-08T00:32:48.158Z,119.85
2023-05-08T00:35:15.855Z,109.38
2023-05-08T00:37:44.844Z,147.02
2023-05-08T00:40:13.590Z,116.68
2023-05-08T00:42:41.387Z,126.57
2023-05-08T00:45:09.709Z,131.80
2023-05-08T00:47:38.310Z,141.30
2023-05-08T00:50:06.505Z,181.52
2023-05-08T00:52:34.616Z,186.68
2023-05-08T00:55:04.214Z,212.70
2023-05-08T00:57:34.594Z,211.80
2023-05-08T01:00:02.954Z,208.25
2023-05-08T01:02:32.045Z,216.63
2023-05-08T01:04:59.887Z,237.18
2023-05-08T01:07:28.556Z,245.13
2023-05-08T01:09:56.248Z,227.15
2023-05-08T01:12:27.496Z,218.00
2023-05-08T01:15:02.322Z,222.35
2023-05-08T01:17:36.998Z,230.48
2023-05-08T01:20:17.733Z,217.27
2023-05-08T01:22:55.212Z,215.20
2023-05-08T01:25:37.667Z,238.48
2023-05-08T01:28:19.041Z,211.23
2023-05-08T01:31:04.625Z,217.05
2023-05-08T01:33:36.658Z,230.43
2023-05-08T01:36:10.135Z,224.40
2023-05-08T01:38:41.554Z,220.30
2023-05-08T01:41:10.204Z,226.85
2023-05-08T01:43:43.638Z,230.13
2023-05-08T01:46:14.629Z,217.77
2023-05-08T01:48:46.184Z,226.85
2023-05-08T01:51:18.106Z,215.52
2023-05-08T01:53:48.800Z,235.95
2023-05-08T01:56:20.155Z,228.82
2023-05-08T01:58:48.291Z,229.13
2023-05-08T02:01:17.032Z,235.18
2023-05-08T02:03:47.243Z,203.88
2023-05-08T02:06:16.874Z,256.25
2023-05-08T02:08:44.723Z,235.57
2023-05-08T02:11:13.584Z,241.30
2023-05-08T02:13:41.865Z,258.35
2023-05-08T02:16:10.598Z,275.63
2023-05-08T02:18:40.012Z,203.98
2023-05-08T02:21:10.502Z,213.20
2023-05-08T02:23:39.405Z,247.43
2023-05-08T02:26:07.088Z,261.55
2023-05-08T02:28:36.651Z,227.48
2023-05-08T02:31:04.376Z,231.18
2023-05-08T02:33:32.032Z,222.52
2023-05-08T02:36:00.140Z,226.45
2023-05-08T02:38:30.719Z,210.98
2023-05-08T02:40:59.456Z,219.65
2023-05-08T02:43:27.103Z,215.40
2023-05-08T02:46:00.372Z,238.00
2023-05-08T02:48:34.219Z,218.00
2023-05-08T02:51:04.332Z,235.93
2023-05-08T02:53:36.131Z,238.50
2023-05-08T02:56:08.110Z,199.65
2023-05-08T02:58:39.117Z,215.88
2023-05-08T03:01:08.221Z,232.98
2023-05-08T03:03:39.703Z,201.50
2023-05-08T03:06:10.754Z,191.15
2023-05-08T03:08:41.012Z,206.55
2023-05-08T03:11:10.188Z,214.73
2023-05-08T03:13:41.644Z,202.13
2023-05-08T03:16:12.814Z,207.95
2023-05-08T03:18:44.113Z,174.00
2023-05-08T03:21:13.053Z,209.60
2023-05-08T03:23:43.427Z,208.57
2023-05-08T03:26:11.255Z,208.40
2023-05-08T03:28:41.095Z,214.10
2023-05-08T03:31:08.919Z,175.18
2023-05-08T03:33:38.381Z,185.07
2023-05-08T03:36:07.312Z,174.57
2023-05-08T03:38:35.856Z,172.18
2023-05-08T03:41:05.183Z,181.98
2023-05-08T03:43:33.257Z,159.40
2023-05-08T03:46:00.914Z,168.10
2023-05-08T03:48:28.603Z,139.80
2023-05-08T03:50:56.508Z,127.88
2023-05-08T03:53:24.309Z,132.02
2023-05-08T03:56:05.875Z,115.47
2023-05-08T03:58:38.946Z,140.40
2023-05-08T04:01:09.795Z,126.18
2023-05-08T04:03:54.892Z,140.50
2023-05-08T04:06:28.758Z,125.05
2023-05-08T04:09:03.809Z,128.15
2023-05-08T04:11:32.833Z,126.60
2023-05-08T04:14:04.480Z,137.77
2023-05-08T04:16:33.879Z,147.27
2023-05-08T04:19:03.073Z,120.85
2023-05-08T04:21:35.210Z,101.10
2023-05-08T04:24:04.274Z,127.90
2023-05-08T04:26:31.973Z,121.75
2023-05-08T04:28:59.832Z,120.18
2023-05-08T04:31:29.494Z,152.95
2023-05-08T04:33:57.405Z,135.88
2023-05-08T04:36:26.078Z,134.70
2023-05-08T04:38:53.678Z,123.47
2023-05-08T04:41:21.790Z,119.05
2023-05-08T04:43:49.746Z,106.07
2023-05-08T04:46:17.472Z,116.15
2023-05-08T04:48:46.514Z,106.57
2023-05-08T04:51:14.154Z,101.38
2023-05-08T04:53:41.814Z,106.55
2023-05-08T04:56:09.505Z,84.93
2023-05-08T04:58:37.162Z,91.70
2023-05-08T05:01:04.841Z,85.38
2023-05-08T05:03:32.500Z,86.53
2023-05-08T05:06:01.894Z,101.18
2023-05-08T05:08:31.789Z,88.97
2023-05-08T05:11:05.372Z,93.15
2023-05-08T05:13:33.041Z,79.15
2023-05-08T05:16:00.737Z,76.53
2023-05-08T05:18:28.556Z,77.47
2023-05-08T05:20:58.934Z,91.25
2023-05-08T05:23:27.952Z,76.43
2023-05-08T05:25:55.865Z,77.45
2023-05-08T05:28:23.654Z,79.53
2023-05-08T05:30:51.332Z,74.35
2023-05-08T05:33:18.990Z,79.93
2023-05-08T05:35:46.626Z,89.80
2023-05-08T05:38:14.273Z,86.15
2023-05-08T05:40:43.385Z,95.82
2023-05-08T05:43:13.149Z,88.85
2023-05-08T05:45:41.369Z,96.13
2023-05-08T05:48:09.108Z,78.97
2023-05-08T05:50:37.670Z,99.60
2023-05-08T05:53:05.578Z,87.85
2023-05-08T05:55:34.206Z,76.03
2023-05-08T05:58:03.253Z,80.75
2023-05-08T06:00:31.427Z,81.93
2023-05-08T06:02:59.150Z,80.32
2023-05-08T06:05:27.239Z,79.65
2023-05-08T06:07:55.254Z,74.70
2023-05-08T06:10:22.906Z,70.80
2023-05-08T06:12:50.763Z,65.65
2023-05-08T06:15:20.278Z,84.15
2023-05-08T06:17:48.112Z,68.22
2023-05-08T06:20:16.590Z,65.30
2023-05-08T06:22:44.512Z,62.20
2023-05-08T06:25:12.846Z,67.25
2023-05-08T06:27:41.844Z,75.60
2023-05-08T06:30:11.001Z,56.75
2023-05-08T06:32:40.735Z,46.10
2023-05-08T06:35:08.896Z,41.63
2023-05-08T06:37:36.724Z,57.08
2023-05-08T06:40:12.198Z,49.85
2023-05-08T06:42:43.428Z,56.55
2023-05-08T06:45:11.658Z,45.00
2023-05-08T06:47:41.027Z,49.05
2023-05-08T06:50:09.073Z,48.80
2023-05-08T06:52:36.837Z,42.25
2023-05-08T06:55:04.874Z,50.72
2023-05-08T06:57:32.970Z,43.53
2023-05-08T07:00:00.567Z,41.88
2023-05-08T07:02:28.480Z,42.72
2023-05-08T07:04:58.384Z,40.70
2023-05-08T07:07:26.073Z,43.33
2023-05-08T07:09:53.781Z,41.78
2023-05-08T07:12:21.550Z,41.53
2023-05-08T07:14:49.179Z,39.15
2023-05-08T07:17:16.852Z,36.30
2023-05-08T07:19:44.680Z,37.83
2023-05-08T07:22:13.806Z,34.53
2023-05-08T07:24:41.821Z,36.78
2023-05-08T07:27:09.948Z,38.30
2023-05-08T07:29:37.656Z,37.42
2023-05-08T07:32:08.168Z,30.95
2023-05-08T07:34:35.950Z,35.13
2023-05-08T07:37:03.799Z,31.25
2023-05-08T07:39:32.912Z,28.35
2023-05-08T07:42:01.550Z,37.65
2023-05-08T07:44:40.302Z,29.20
2023-05-08T07:47:39.985Z,31.38
2023-05-08T07:50:08.248Z,21.05
2023-05-08T07:52:36.410Z,20.33
2023-05-08T07:55:05.962Z,26.45
2023-05-08T07:57:37.450Z,28.92
2023-05-08T08:00:05.564Z,30.08
2023-05-08T08:02:33.277Z,27.15
2023-05-08T08:05:01.219Z,30.23
2023-05-08T08:07:28.887Z,39.58
2023-05-08T08:09:56.940Z,34.47
2023-05-08T08:12:25.982Z,37.45
2023-05-08T08:14:53.759Z,35.28
2023-05-08T08:17:21.503Z,47.08
2023-05-08T08:19:49.937Z,41.67
2023-05-08T08:22:17.673Z,37.95
2023-05-08T08:24:45.468Z,38.13
2023-05-08T08:27:13.378Z,33.25
2023-05-08T08:29:42.646Z,37.80
2023-05-08T08:32:10.309Z,28.98
2023-05-08T08:34:37.985Z,26.85
2023-05-08T08:37:06.811Z,33.47
2023-05-08T08:39:35.286Z,26.40
2023-05-08T08:42:03.370Z,29.13
2023-05-08T08:44:31.171Z,27.95
2023-05-08T08:47:00.821Z,24.42
2023-05-08T08:49:30.845Z,25.65
2023-05-08T08:52:01.258Z,29.58
2023-05-08T08:54:29.956Z,15.70
2023-05-08T08:56:57.829Z,22.02
2023-05-08T08:59:27.152Z,17.42
2023-05-08T09:01:56.249Z,22.30
2023-05-08T09:04:27.626Z,18.80
2023-05-08T09:06:55.735Z,18.40
2023-05-08T09:09:24.010Z,20.40
2023-05-08T09:11:52.991Z,18.27
2023-05-08T09:14:20.687Z,20.13
2023-05-08T09:16:48.372Z,18.67
2023-05-08T09:19:16.680Z,19.92
2023-05-08T09:21:46.264Z,21.67
2023-05-08T09:24:13.949Z,17.58
2023-05-08T09:26:42.291Z,18.35
2023-05-08T09:29:10.862Z,19.30
2023-05-08T09:31:40.350Z,18.33
2023-05-08T09:34:08.562Z,21.15
2023-05-08T09:36:37.366Z,16.13
2023-05-08T09:39:14.055Z,18.20
2023-05-08T09:41:57.399Z,23.30
2023-05-08T09:44:25.275Z,26.88
2023-05-08T09:46:53.987Z,21.48
2023-05-08T09:49:21.696Z,24.33
2023-05-08T09:51:53.100Z,21.42
2023-05-08T09:54:23.176Z,20.02
2023-05-08T09:56:51.036Z,24.60
2023-05-08T09:59:26.194Z,19.33
2023-05-08T10:04:32.498Z,21.00
2023-05-08T10:07:00.202Z,18.88
2023-05-08T10:09:42.537Z,21.23
2023-05-08T10:12:17.274Z,18.95
2023-05-08T10:14:46.974Z,18.52
2023-05-08T10:17:17.281Z,15.02
2023-05-08T10:19:47.113Z,18.23
2023-05-08T10:22:16.212Z,16.92
2023-05-08T10:24:45.523Z,17.80
2023-05-08T10:27:16.960Z,19.38
2023-05-08T10:29:48.529Z,16.92
2023-05-08T10:32:17.339Z,17.75
2023-05-08T10:34:47.785Z,21.85
2023-05-08T10:37:23.168Z,18.63
2023-05-08T10:39:53.212Z,15.43
2023-05-08T10:42:21.225Z,19.70
2023-05-08T10:44:49.154Z,17.25
2023-05-08T10:47:20.446Z,18.08
2023-05-08T10:49:50.607Z,18.45
2023-05-08T10:52:20.921Z,18.17
2023-05-08T10:55:09.453Z,21.67
2023-05-08T10:57:38.468Z,17.30
2023-05-08T11:00:06.784Z,13.15
2023-05-08T11:02:37.175Z,12.70
2023-05-08T11:05:20.448Z,13.90
2023-05-08T11:07:54.855Z,10.18
2023-05-08T11:10:23.124Z,15.10
2023-05-08T11:12:52.422Z,11.45
2023-05-08T11:15:36.612Z,13.25
2023-05-08T11:18:05.151Z,15.27
2023-05-08T11:20:39.811Z,12.20
2023-05-08T11:23:22.699Z,16.75
2023-05-08T11:26:00.196Z,16.20
2023-05-08T11:28:29.354Z,15.35
2023-05-08T11:30:57.185Z,13.55
2023-05-08T11:33:30.193Z,11.40
2023-05-08T11:35:58.756Z,11.90
2023-05-08T11:38:34.309Z,11.23
2023-05-08T11:41:03.413Z,13.73
2023-05-08T11:43:51.601Z,14.10
2023-05-08T11:46:21.467Z,13.90
2023-05-08T11:48:49.245Z,12.50
2023-05-08T11:51:19.194Z,13.68
2023-05-08T11:53:47.122Z,11.00
2023-05-08T11:56:15.345Z,10.48
2023-05-08T11:58:43.169Z,8.50
2023-05-08T12:01:12.267Z,11.27
2023-05-08T12:03:40.452Z,8.95
2023-05-08T12:06:08.707Z,12.50
2023-05-08T12:08:39.092Z,15.75
2023-05-08T12:11:06.776Z,11.30
2023-05-08T12:13:34.726Z,12.73
2023-05-08T12:16:02.621Z,13.98
2023-05-08T12:18:31.589Z,12.70
2023-05-08T12:21:00.331Z,15.75
2023-05-08T12:23:29.347Z,13.23
2023-05-08T12:26:06.117Z,14.90
2023-05-08T12:28:34.340Z,12.43
2023-05-08T12:31:02.515Z,11.18
2023-05-08T12:33:31.853Z,15.48
2023-05-08T12:35:59.822Z,12.95
2023-05-08T12:38:28.068Z,11.63
2023-05-08T12:40:56.633Z,13.73
2023-05-08T12:43:32.364Z,15.40
2023-05-08T12:46:01.044Z,15.00
2023-05-08T12:48:29.142Z,15.65
2023-05-08T12:51:02.693Z,13.50
2023-05-08T12:53:31.428Z,14.70
2023-05-08T12:56:02.776Z,11.85
2023-05-08T12:58:31.675Z,13.70
2023-05-08T13:01:10.326Z,11.43
2023-05-08T13:03:38.963Z,11.68
2023-05-08T13:06:08.537Z,9.30
2023-05-08T13:08:37.674Z,9.48
2023-05-08T13:11:06.385Z,12.25
2023-05-08T13:13:35.709Z,14.20
2023-05-08T13:16:04.464Z,13.65
2023-05-08T13:18:32.467Z,9.65
2023-05-08T13:21:02.104Z,14.43
2023-05-08T13:23:31.840Z,12.57
2023-05-08T13:26:01.988Z,13.80
2023-05-08T13:28:29.620Z,15.70
2023-05-08T13:30:57.283Z,16.42
2023-05-08T13:33:25.362Z,18.40
2023-05-08T13:35:53.229Z,18.20
2023-05-08T13:38:20.894Z,14.57
2023-05-08T13:40:49.923Z,14.65
2023-05-08T13:43:17.794Z,16.33
2023-05-08T13:45:45.662Z,14.57
2023-05-08T13:48:13.480Z,13.60
2023-05-08T13:50:41.166Z,10.20
2023-05-08T13:53:10.788Z,10.80
2023-05-08T13:55:39.337Z,11.98
2023-05-08T13:58:08.720Z,12.15
2023-05-08T14:00:36.353Z,14.23
2023-05-08T14:03:04.159Z,14.98
2023-05-08T14:05:37.972Z,11.00
2023-05-08T14:08:06.186Z,11.43
2023-05-08T14:10:33.890Z,12.38
2023-05-08T14:13:01.726Z,11.40
2023-05-08T14:15:36.995Z,16.17
2023-05-08T14:18:06.102Z,18.42
2023-05-08T14:20:33.800Z,22.42
2023-05-08T14:23:01.637Z,19.88
2023-05-08T14:25:31.353Z,14.48
2023-05-08T14:27:58.988Z,18.27
2023-05-08T14:30:26.816Z,18.98
2023-05-08T14:32:56.171Z,19.85
2023-05-08T14:35:24.206Z,18.80
2023-05-08T14:37:51.938Z,21.35
2023-05-08T14:40:19.864Z,22.50
2023-05-08T14:42:47.623Z,21.70
2023-05-08T14:45:15.609Z,19.05
2023-05-08T14:47:43.681Z,21.65
2023-05-08T14:50:13.008Z,18.55
2023-05-08T14:52:41.968Z,17.00
2023-05-08T14:55:10.679Z,14.73
2023-05-08T14:57:39.037Z,16.48
2023-05-08T15:00:07.707Z,13.23
2023-05-08T15:02:35.442Z,18.08
2023-05-08T15:05:08.386Z,16.70
2023-05-08T15:07:42.136Z,18.63
2023-05-08T15:10:10.414Z,20.67
2023-05-08T15:12:38.208Z,20.55
2023-05-08T15:15:06.736Z,21.90
2023-05-08T15:17:36.448Z,24.27
2023-05-08T15:20:04.562Z,14.20
2023-05-08T15:22:32.380Z,21.40
2023-05-08T15:25:02.716Z,21.58
2023-05-08T15:27:30.650Z,17.95
2023-05-08T15:29:58.601Z,19.83
2023-05-08T15:32:26.358Z,22.52
2023-05-08T15:34:54.183Z,22.58
2023-05-08T15:37:21.808Z,18.92
2023-05-08T15:39:50.211Z,24.38
2023-05-08T15:42:20.634Z,20.05
2023-05-08T15:47:19.584Z,19.70
2023-05-08T15:49:47.261Z,16.73
2023-05-08T15:52:18.991Z,17.13
2023-05-08T15:54:46.686Z,14.95
2023-05-08T15:57:14.619Z,22.20
2023-05-08T15:59:43.907Z,17.70
2023-05-08T16:02:11.642Z,17.23
2023-05-08T16:04:39.547Z,15.82
2023-05-08T16:07:07.232Z,21.20
2023-05-08T16:09:34.931Z,18.42
2023-05-08T16:12:02.649Z,22.48
2023-05-08T16:14:30.364Z,19.20
2023-05-08T16:16:59.379Z,20.70
2023-05-08T16:19:27.077Z,20.77
2023-05-08T16:21:54.821Z,20.90
2023-05-08T16:24:22.519Z,21.50
2023-05-08T16:26:51.557Z,17.70
2023-05-08T16:29:19.233Z,18.65
2023-05-08T16:31:46.910Z,14.75
2023-05-08T16:34:16.026Z,13.30
2023-05-08T16:36:44.089Z,13.77
2023-05-08T16:39:12.106Z,13.77
2023-05-08T16:41:40.065Z,12.32
2023-05-08T16:44:07.729Z,11.30
2023-05-08T16:46:35.527Z,9.77
2023-05-08T16:49:03.256Z,14.07
2023-05-08T16:51:32.390Z,11.48
2023-05-08T16:54:00.063Z,13.82
2023-05-08T16:56:27.822Z,16.10
2023-05-08T16:58:55.435Z,17.15
2023-05-08T17:01:23.169Z,17.27
2023-05-08T17:03:50.963Z,16.42
2023-05-08T17:06:23.453Z,14.43
2023-05-08T17:08:52.502Z,8.00
2023-05-08T17:11:20.151Z,10.95
2023-05-08T17:13:48.113Z,8.55
2023-05-08T17:16:17.663Z,8.35
2023-05-08T17:18:46.722Z,11.10
2023-05-08T17:21:14.498Z,15.10
2023-05-08T17:23:42.319Z,9.50
2023-05-08T17:26:11.365Z,10.98
2023-05-08T17:28:39.063Z,9.65
2023-05-08T17:31:06.840Z,8.23
2023-05-08T17:33:34.664Z,7.53
2023-05-08T17:36:02.518Z,8.80
2023-05-08T17:38:30.164Z,13.63
2023-05-08T17:40:57.853Z,8.15
2023-05-08T17:43:28.620Z,10.18
2023-05-08T17:45:56.405Z,8.88
2023-05-08T17:48:24.319Z,9.23
2023-05-08T17:50:51.972Z,8.13
2023-05-08T17:53:21.129Z,7.90
2023-05-08T17:55:48.836Z,8.93
2023-05-08T17:58:16.634Z,14.80
2023-05-08T18:00:45.854Z,16.05
2023-05-08T18:03:14.191Z,12.57
2023-05-08T18:05:41.924Z,8.95
2023-05-08T18:08:09.585Z,6.82
2023-05-08T18:10:37.389Z,10.82
2023-05-08T18:13:05.215Z,9.90
2023-05-08T18:15:35.470Z,13.57
2023-05-08T18:18:04.609Z,8.35
2023-05-08T18:20:33.265Z,9.48
2023-05-08T18:23:00.924Z,8.27
2023-05-08T18:25:28.867Z,8.35
2023-05-08T18:27:58.907Z,8.75
2023-05-08T18:30:26.568Z,10.50
2023-05-08T18:32:54.920Z,12.40
2023-05-08T18:35:24.059Z,12.05
2023-05-08T18:37:52.683Z,12.57
2023-05-08T18:40:20.539Z,11.57
2023-05-08T18:42:48.172Z,12.50
2023-05-08T18:45:15.870Z,9.50
2023-05-08T18:47:43.728Z,12.23
2023-05-08T18:50:11.982Z,10.90
2023-05-08T18:52:41.149Z,9.30
2023-05-08T18:55:09.181Z,9.27
2023-05-08T18:57:36.837Z,11.00
2023-05-08T19:00:05.534Z,10.35
2023-05-08T19:02:33.322Z,13.57
2023-05-08T19:05:01.071Z,16.80
2023-05-08T19:07:29.525Z,13.57
2023-05-08T19:09:58.539Z,10.27
2023-05-08T19:12:26.173Z,10.82
2023-05-08T19:14:55.076Z,9.18
2023-05-08T19:17:22.952Z,12.43
2023-05-08T19:19:51.466Z,13.60
2023-05-08T19:22:19.146Z,13.90
2023-05-08T19:24:46.853Z,10.15
2023-05-08T19:27:17.347Z,7.50
2023-05-08T19:29:45.007Z,13.15
2023-05-08T19:32:12.676Z,9.70
2023-05-08T19:34:40.462Z,11.32
2023-05-08T19:37:09.054Z,9.07
2023-05-08T19:39:51.038Z,7.53
2023-05-08T19:42:20.263Z,10.23
2023-05-08T19:44:47.971Z,9.60
2023-05-08T19:47:15.627Z,11.25
2023-05-08T19:49:44.349Z,8.75
2023-05-08T19:52:12.524Z,9.55
2023-05-08T19:54:40.360Z,10.23
2023-05-08T19:57:08.313Z,13.57
2023-05-08T19:59:37.287Z,12.43
2023-05-08T20:02:05.125Z,10.50
2023-05-08T20:04:38.845Z,12.73
2023-05-08T20:07:20.615Z,16.38
2023-05-08T20:09:48.399Z,18.30
2023-05-08T20:12:16.046Z,11.32
2023-05-08T20:14:45.061Z,16.35
2023-05-08T20:17:12.711Z,11.05
2023-05-08T20:19:40.438Z,15.00
2023-05-08T20:22:08.137Z,11.07
2023-05-08T20:24:35.808Z,12.38
2023-05-08T20:27:05.803Z,18.02
2023-05-08T20:29:33.637Z,12.00
2023-05-08T20:32:02.699Z,8.38
2023-05-08T20:34:30.394Z,12.27
2023-05-08T20:37:00.879Z,10.88
2023-05-08T20:39:28.629Z,13.73
2023-05-08T20:41:56.269Z,11.25
2023-05-08T20:44:24.360Z,11.68
2023-05-08T20:46:52.495Z,12.20
2023-05-08T20:49:21.556Z,11.52
2023-05-08T20:51:49.378Z,11.45
2023-05-08T20:54:17.045Z,10.27
2023-05-08T20:56:44.694Z,9.68
2023-05-08T20:59:12.581Z,14.75
2023-05-08T21:01:42.299Z,11.05
2023-05-08T21:04:10.173Z,9.20
2023-05-08T21:06:45.398Z,12.07
2023-05-08T21:11:40.873Z,6.57
2023-05-08T21:14:08.474Z,8.73
2023-05-08T21:16:36.324Z,11.57
2023-05-08T21:19:04.066Z,9.18
2023-05-08T21:21:31.714Z,11.43
2023-05-08T21:24:00.705Z,11.00
2023-05-08T21:26:28.398Z,14.27
2023-05-08T21:28:58.597Z,11.32
2023-05-08T21:31:28.589Z,14.68
2023-05-08T21:33:56.422Z,18.20
2023-05-08T21:36:25.361Z,14.32
2023-05-08T21:38:53.349Z,12.05
2023-05-08T21:41:22.875Z,11.45
2023-05-08T21:43:50.682Z,11.02
2023-05-08T21:46:18.365Z,13.00
2023-05-08T21:48:46.192Z,11.00
2023-05-08T21:51:13.828Z,9.85
2023-05-08T21:53:43.897Z,11.05
2023-05-08T21:56:11.686Z,12.30
2023-05-08T21:58:40.657Z,9.35
2023-05-08T22:01:08.297Z,18.88
2023-05-08T22:03:36.118Z,10.02
2023-05-08T22:06:04.070Z,15.23
2023-05-08T22:08:31.778Z,13.70
2023-05-08T22:11:09.380Z,12.57
2023-05-08T22:13:37.588Z,10.05
2023-05-08T22:16:07.350Z,11.85
2023-05-08T22:18:35.013Z,14.73
2023-05-08T22:21:02.676Z,13.25
2023-05-08T22:23:30.392Z,13.63
2023-05-08T22:25:57.993Z,13.73
2023-05-08T22:28:26.551Z,12.27
2023-05-08T22:30:57.167Z,11.95
2023-05-08T22:33:26.136Z,13.15
2023-05-08T22:35:57.494Z,12.80
2023-05-08T22:38:25.206Z,9.85
2023-05-08T22:40:53.396Z,14.48
2023-05-08T22:43:21.008Z,14.45
2023-05-08T22:45:48.637Z,10.13
2023-05-08T22:48:16.564Z,11.45
2023-05-08T22:50:45.729Z,11.95
2023-05-08T22:53:13.426Z,12.25
2023-05-08T22:55:41.491Z,17.00
2023-05-08T22:58:09.141Z,15.07
2023-05-08T23:00:36.909Z,19.85
2023-05-08T23:03:04.852Z,14.52
2023-05-08T23:05:32.513Z,12.07
2023-05-08T23:08:02.066Z,12.38
2023-05-08T23:10:30.009Z,11.93
2023-05-08T23:12:57.626Z,15.75
2023-05-08T23:15:25.259Z,11.90
2023-05-08T23:17:53.109Z,14.73
2023-05-08T23:20:21.038Z,13.57
2023-05-08T23:22:50.054Z,13.23
2023-05-08T23:25:19.275Z,16.90
2023-05-08T23:27:46.910Z,14.35
2023-05-08T23:30:16.952Z,14.57
2023-05-08T23:32:44.767Z,14.68
2023-05-08T23:35:12.778Z,11.95
2023-05-08T23:37:40.817Z,14.57
2023-05-08T23:40:09.696Z,11.65
2023-05-08T23:42:39.880Z,12.80
2023-05-08T23:45:08.460Z,16.38
2023-05-08T23:47:36.348Z,16.42
2023-05-08T23:50:04.368Z,15.10
2023-05-08T23:52:32.024Z,15.98
2023-05-08T23:54:59.661Z,12.15
2023-05-08T23:57:27.468Z,14.50
2023-05-08T23:59:56.491Z,17.83
